createdAt,value
2022-08-04T00:02:19.930Z,27.50
2022-08-04T00:04:54.308Z,27.50
2022-08-04T00:07:44.270Z,27.50
2022-08-04T00:10:17.236Z,27.50
2022-08-04T00:12:50.831Z,27.50
2022-08-04T00:15:22.574Z,27.50
2022-08-04T00:17:56.452Z,27.50
2022-08-04T00:20:30.047Z,27.40
2022-08-04T00:22:58.871Z,27.40
2022-08-04T00:25:27.573Z,27.30
2022-08-04T00:27:55.891Z,27.30
2022-08-04T00:30:25.854Z,27.30
2022-08-04T00:32:54.338Z,27.20
2022-08-04T00:37:52.120Z,27.20
2022-08-04T00:40:29.620Z,27.20
2022-08-04T00:43:09.280Z,27.10
2022-08-04T00:46:18.033Z,27.10
2022-08-04T00:49:10.406Z,27.00
2022-08-04T00:51:47.937Z,27.00
2022-08-04T00:54:50.141Z,26.90
2022-08-04T00:57:33.916Z,26.90
2022-08-04T01:00:09.434Z,26.90
2022-08-04T01:02:47.757Z,26.90
2022-08-04T01:05:22.755Z,26.90
2022-08-04T01:08:09.453Z,26.90
2022-08-04T01:10:47.405Z,26.90
2022-08-04T01:13:30.452Z,26.90
2022-08-04T01:16:03.140Z,26.90
2022-08-04T01:18:40.840Z,26.90
2022-08-04T01:21:27.082Z,26.90
2022-08-04T01:24:18.353Z,26.90
2022-08-04T01:26:57.690Z,26.90
2022-08-04T01:29:44.021Z,26.90
2022-08-04T01:32:25.859Z,26.90
2022-08-04T01:34:59.343Z,26.80
2022-08-04T01:37:43.245Z,26.80
2022-08-04T01:40:14.545Z,26.70
2022-08-04T01:42:45.478Z,26.60
2022-08-04T01:45:16.227Z,26.60
2022-08-04T01:47:50.242Z,26.50
2022-08-04T01:50:18.796Z,26.40
2022-08-04T01:52:50.990Z,26.30
2022-08-04T01:55:19.706Z,26.30
2022-08-04T02:00:21.490Z,26.10
2022-08-04T02:02:51.373Z,26.10
2022-08-04T02:05:21.205Z,26.10
2022-08-04T02:08:07.124Z,26.10
2022-08-04T02:10:51.529Z,26.10
2022-08-04T02:13:24.900Z,26.10
2022-08-04T02:16:02.476Z,26.20
2022-08-04T02:18:33.502Z,26.20
2022-08-04T02:21:03.087Z,26.20
2022-08-04T02:23:36.729Z,26.10
2022-08-04T02:26:06.845Z,26.10
2022-08-04T02:28:47.772Z,26.10
2022-08-04T02:31:26.383Z,26.10
2022-08-04T02:34:02.856Z,26.00
2022-08-04T02:36:36.982Z,26.00
2022-08-04T02:39:06.690Z,26.00
2022-08-04T02:41:35.862Z,26.00
2022-08-04T02:44:05.463Z,26.00
2022-08-04T02:46:36.790Z,25.90
2022-08-04T02:49:06.335Z,25.90
2022-08-04T02:51:37.026Z,25.80
2022-08-04T02:54:06.763Z,25.80
2022-08-04T02:56:37.363Z,25.80
2022-08-04T02:59:08.902Z,25.80
2022-08-04T03:01:57.184Z,25.80
2022-08-04T03:04:48.041Z,25.80
2022-08-04T03:07:54.619Z,25.70
2022-08-04T03:10:51.460Z,25.70
2022-08-04T03:13:37.737Z,25.70
2022-08-04T03:16:45.475Z,25.70
2022-08-04T03:19:44.924Z,25.70
2022-08-04T03:22:41.966Z,25.70
2022-08-04T03:25:57.035Z,25.50
2022-08-04T03:28:56.419Z,25.50
2022-08-04T03:31:55.281Z,25.50
2022-08-04T03:34:41.273Z,25.50
2022-08-04T03:37:36.201Z,25.50
2022-08-04T03:40:48.819Z,25.50
2022-08-04T03:43:57.314Z,25.50
2022-08-04T03:46:55.906Z,25.50
2022-08-04T03:50:04.489Z,25.40
2022-08-04T03:53:09.320Z,25.50
2022-08-04T03:56:16.142Z,25.50
2022-08-04T03:59:32.889Z,25.50
2022-08-04T04:02:32.097Z,25.50
2022-08-04T04:05:17.060Z,25.50
2022-08-04T04:08:30.644Z,25.50
2022-08-04T04:11:30.155Z,25.50
2022-08-04T04:14:14.143Z,25.40
2022-08-04T04:16:58.759Z,25.40
2022-08-04T04:19:58.209Z,25.30
2022-08-04T04:22:53.199Z,25.30
2022-08-04T04:25:36.989Z,25.30
2022-08-04T04:31:22.366Z,25.30
2022-08-04T04:33:59.660Z,25.30
2022-08-04T04:36:35.373Z,25.40
2022-08-04T04:39:14.000Z,25.40
2022-08-04T04:41:59.409Z,25.30
2022-08-04T04:44:49.778Z,25.30
2022-08-04T04:47:43.230Z,25.30
2022-08-04T04:50:15.799Z,25.30
2022-08-04T04:52:48.814Z,25.30
2022-08-04T04:55:22.610Z,25.30
2022-08-04T04:57:55.258Z,25.30
2022-08-04T05:00:27.561Z,25.30
2022-08-04T05:03:16.709Z,25.30
2022-08-04T05:06:10.949Z,25.30
2022-08-04T05:09:14.500Z,25.30
2022-08-04T05:14:30.870Z,25.40
2022-08-04T05:15:05.623Z,25.40
2022-08-04T05:17:39.255Z,25.40
2022-08-04T05:20:10.119Z,25.50
2022-08-04T05:22:43.245Z,25.50
2022-08-04T05:25:22.645Z,25.50
2022-08-04T05:27:58.459Z,25.60
2022-08-04T05:30:28.208Z,25.70
2022-08-04T05:33:00.824Z,25.70
2022-08-04T05:36:03.547Z,25.80
2022-08-04T05:38:23.562Z,25.80
2022-08-04T05:43:23.676Z,25.80
2022-08-04T05:45:55.015Z,25.90
2022-08-04T05:48:23.300Z,25.90
2022-08-04T05:50:51.570Z,26.10
2022-08-04T05:53:21.175Z,26.10
2022-08-04T05:55:58.420Z,26.30
2022-08-04T05:58:31.334Z,26.40
2022-08-04T06:01:02.048Z,26.40
2022-08-04T06:03:32.477Z,26.40
2022-08-04T06:06:02.053Z,26.30
2022-08-04T06:08:31.333Z,26.10
2022-08-04T06:11:03.577Z,26.00
2022-08-04T06:13:50.205Z,26.00
2022-08-04T06:16:29.948Z,26.00
2022-08-04T06:19:59.746Z,26.00
2022-08-04T06:21:53.788Z,25.90
2022-08-04T06:24:25.951Z,25.90
2022-08-04T06:26:55.011Z,26.10
2022-08-04T06:29:28.315Z,26.10
2022-08-04T06:32:30.604Z,26.20
2022-08-04T06:34:48.870Z,26.30
2022-08-04T06:37:41.223Z,26.30
2022-08-04T06:40:29.641Z,26.40
2022-08-04T06:42:54.661Z,26.40
2022-08-04T06:45:24.972Z,26.50
2022-08-04T06:47:53.742Z,26.50
2022-08-04T06:51:28.023Z,26.70
2022-08-04T06:53:10.420Z,26.70
2022-08-04T06:55:39.304Z,26.70
2022-08-04T06:58:08.526Z,26.80
2022-08-04T07:00:41.444Z,26.90
2022-08-04T07:03:09.714Z,26.90
2022-08-04T07:05:38.071Z,27.00
2022-08-04T07:08:06.375Z,27.10
2022-08-04T07:10:34.976Z,27.10
2022-08-04T07:13:04.080Z,27.10
2022-08-04T07:15:34.329Z,27.30
2022-08-04T07:18:05.020Z,27.40
2022-08-04T07:20:36.833Z,27.40
2022-08-04T07:23:05.395Z,27.40
2022-08-04T07:26:00.278Z,27.60
2022-08-04T07:28:23.466Z,27.70
2022-08-04T07:30:51.707Z,27.70
2022-08-04T07:33:21.765Z,27.70
2022-08-04T07:36:04.908Z,27.80
2022-08-04T07:38:48.436Z,27.90
2022-08-04T07:41:38.706Z,28.00
2022-08-04T07:44:07.743Z,28.00
2022-08-04T07:46:36.744Z,28.20
2022-08-04T07:49:07.011Z,28.30
2022-08-04T07:51:36.726Z,28.30
2022-08-04T07:54:05.731Z,28.40
2022-08-04T07:56:34.412Z,28.50
2022-08-04T07:59:02.599Z,28.50
2022-08-04T08:01:30.680Z,28.60
2022-08-04T08:04:00.512Z,28.60
2022-08-04T08:06:34.731Z,28.80
2022-08-04T08:09:13.538Z,28.80
2022-08-04T08:12:36.712Z,28.90
2022-08-04T08:14:31.608Z,28.80
2022-08-04T08:17:01.540Z,29.00
2022-08-04T08:19:29.509Z,29.10
2022-08-04T08:22:00.815Z,29.10
2022-08-04T08:24:30.457Z,29.20
2022-08-04T08:26:58.564Z,29.20
2022-08-04T08:29:27.648Z,29.30
2022-08-04T08:32:00.481Z,29.30
2022-08-04T08:34:31.978Z,29.30
2022-08-04T08:37:05.693Z,29.40
2022-08-04T08:39:40.560Z,29.40
2022-08-04T08:42:41.467Z,29.50
2022-08-04T08:45:35.901Z,29.50
2022-08-04T08:48:30.001Z,25.90
2022-08-04T08:51:24.852Z,29.70
2022-08-04T08:54:09.761Z,29.70
2022-08-04T08:56:45.967Z,29.80
2022-08-04T08:59:35.643Z,29.80
2022-08-04T09:02:23.308Z,29.90
2022-08-04T09:05:22.547Z,30.10
2022-08-04T09:08:08.102Z,30.20
2022-08-04T09:10:45.021Z,30.20
2022-08-04T09:13:18.627Z,30.30
2022-08-04T09:15:54.477Z,30.40
2022-08-04T09:18:27.721Z,30.40
2022-08-04T09:21:00.604Z,30.40
2022-08-04T09:23:36.951Z,30.50
2022-08-04T09:26:12.310Z,30.60
2022-08-04T09:28:54.679Z,30.80
2022-08-04T09:31:30.161Z,30.80
2022-08-04T09:34:27.533Z,31.00
2022-08-04T09:37:05.912Z,31.00
2022-08-04T09:39:41.270Z,31.00
2022-08-04T09:42:26.077Z,31.10
2022-08-04T09:45:05.698Z,31.20
2022-08-04T09:47:40.704Z,31.30
2022-08-04T09:50:27.614Z,31.30
2022-08-04T09:53:04.324Z,31.30
2022-08-04T09:55:53.510Z,31.50
2022-08-04T09:58:37.046Z,31.70
2022-08-04T10:01:10.069Z,31.70
2022-08-04T10:03:44.656Z,31.90
2022-08-04T10:06:37.489Z,31.90
2022-08-04T10:09:21.785Z,32.10
2022-08-04T10:12:04.418Z,32.10
2022-08-04T10:14:41.555Z,32.20
2022-08-04T10:17:35.699Z,32.20
2022-08-04T10:20:09.863Z,32.50
2022-08-04T10:23:09.527Z,32.50
2022-08-04T10:26:06.859Z,32.60
2022-08-04T10:28:42.630Z,32.80
2022-08-04T10:31:18.245Z,32.80
2022-08-04T10:33:53.760Z,33.00
2022-08-04T10:36:25.575Z,33.10
2022-08-04T10:39:00.801Z,33.20
2022-08-04T10:41:43.940Z,33.20
2022-08-04T10:44:24.530Z,33.40
2022-08-04T10:46:58.196Z,33.50
2022-08-04T10:49:36.057Z,33.50
2022-08-04T10:52:09.580Z,33.60
2022-08-04T10:54:47.560Z,33.60
2022-08-04T10:57:22.342Z,33.70
2022-08-04T11:00:00.603Z,33.70
2022-08-04T11:02:44.276Z,33.80
2022-08-04T11:05:31.407Z,33.70
2022-08-04T11:08:08.722Z,33.80
2022-08-04T11:10:46.392Z,33.90
2022-08-04T11:13:22.204Z,34.10
2022-08-04T11:16:03.415Z,34.10
2022-08-04T11:18:42.198Z,34.30
2022-08-04T11:21:16.427Z,34.50
2022-08-04T11:23:52.756Z,34.50
2022-08-04T11:26:25.596Z,34.60
2022-08-04T11:29:04.063Z,33.80
2022-08-04T11:31:34.791Z,34.80
2022-08-04T11:34:09.386Z,34.70
2022-08-04T11:36:47.481Z,34.80
2022-08-04T11:39:21.304Z,34.90
2022-08-04T11:41:54.436Z,34.90
2022-08-04T11:44:31.077Z,34.90
2022-08-04T11:47:04.484Z,34.90
2022-08-04T11:49:57.379Z,35.10
2022-08-04T11:52:29.145Z,35.10
2022-08-04T11:54:58.678Z,35.20
2022-08-04T11:57:35.958Z,35.30
2022-08-04T12:00:09.299Z,35.40
2022-08-04T12:03:13.715Z,35.40
2022-08-04T12:05:59.254Z,35.50
2022-08-04T12:08:41.975Z,35.40
2022-08-04T12:11:22.865Z,35.30
2022-08-04T12:14:02.317Z,35.10
2022-08-04T12:16:37.568Z,35.20
2022-08-04T12:19:15.444Z,35.20
2022-08-04T12:21:53.152Z,35.30
2022-08-04T12:24:28.748Z,35.30
2022-08-04T12:26:59.793Z,35.40
2022-08-04T12:29:32.401Z,35.50
2022-08-04T12:32:08.166Z,35.60
2022-08-04T12:34:43.129Z,35.60
2022-08-04T12:37:24.342Z,35.60
2022-08-04T12:40:28.600Z,35.50
2022-08-04T12:42:55.720Z,35.50
2022-08-04T12:45:25.637Z,35.40
2022-08-04T12:47:55.010Z,35.70
2022-08-04T12:50:23.847Z,35.40
2022-08-04T12:53:04.112Z,35.40
2022-08-04T12:55:34.989Z,35.50
2022-08-04T12:58:04.937Z,35.80
2022-08-04T13:00:43.719Z,35.70
2022-08-04T13:03:15.077Z,35.90
2022-08-04T13:05:44.908Z,36.00
2022-08-04T13:08:15.856Z,36.20
2022-08-04T13:10:47.255Z,36.20
2022-08-04T13:13:18.477Z,36.20
2022-08-04T13:15:57.757Z,36.30
2022-08-04T13:18:30.117Z,36.40
2022-08-04T13:21:19.254Z,36.50
2022-08-04T13:24:10.704Z,36.60
2022-08-04T13:26:54.799Z,36.70
2022-08-04T13:29:58.719Z,36.60
2022-08-04T13:32:18.928Z,36.50
2022-08-04T13:34:49.606Z,36.40
2022-08-04T13:37:26.054Z,36.40
2022-08-04T13:39:56.762Z,36.20
2022-08-04T13:42:26.778Z,36.10
2022-08-04T13:44:58.078Z,36.00
2022-08-04T13:47:30.035Z,36.00
2022-08-04T13:50:11.263Z,36.00
2022-08-04T13:52:41.314Z,36.00
2022-08-04T13:55:20.404Z,36.00
2022-08-04T13:57:52.226Z,35.90
2022-08-04T14:00:30.090Z,35.90
2022-08-04T14:03:03.592Z,35.90
2022-08-04T14:06:07.851Z,35.90
2022-08-04T14:08:43.824Z,35.80
2022-08-04T14:12:10.675Z,35.80
2022-08-04T14:14:01.681Z,35.80
2022-08-04T14:16:29.585Z,35.80
2022-08-04T14:19:01.821Z,35.90
2022-08-04T14:21:36.450Z,35.90
2022-08-04T14:24:04.462Z,36.00
2022-08-04T14:26:35.294Z,36.30
2022-08-04T14:29:26.998Z,36.60
2022-08-04T14:32:04.439Z,36.70
2022-08-04T14:34:41.524Z,36.90
2022-08-04T14:37:17.124Z,37.30
2022-08-04T14:40:07.907Z,37.40
2022-08-04T14:42:54.921Z,37.50
2022-08-04T14:45:32.687Z,37.70
2022-08-04T14:48:01.801Z,37.90
2022-08-04T14:50:40.052Z,37.90
2022-08-04T14:53:09.737Z,38.00
2022-08-04T14:55:38.490Z,38.10
2022-08-04T14:58:35.211Z,38.30
2022-08-04T15:00:58.516Z,38.30
2022-08-04T15:03:26.966Z,38.50
2022-08-04T15:06:05.256Z,38.60
2022-08-04T15:08:36.031Z,38.60
2022-08-04T15:11:04.051Z,38.60
2022-08-04T15:13:33.591Z,38.70
2022-08-04T15:16:07.300Z,38.70
2022-08-04T15:18:37.286Z,38.70
2022-08-04T15:21:05.775Z,38.70
2022-08-04T15:23:39.514Z,38.60
2022-08-04T15:26:10.878Z,38.70
2022-08-04T15:28:43.194Z,38.70
2022-08-04T15:32:04.467Z,38.70
2022-08-04T15:34:00.283Z,38.80
2022-08-04T15:36:36.933Z,38.80
2022-08-04T15:39:15.747Z,38.90
2022-08-04T15:41:55.004Z,38.80
2022-08-04T15:44:48.063Z,38.70
2022-08-04T15:47:16.994Z,38.50
2022-08-04T15:49:45.414Z,38.40
2022-08-04T15:52:15.886Z,38.40
2022-08-04T15:54:52.466Z,38.10
2022-08-04T15:58:00.377Z,38.00
2022-08-04T16:00:29.815Z,37.90
2022-08-04T16:02:58.141Z,37.90
2022-08-04T16:05:40.310Z,37.80
2022-08-04T16:08:16.370Z,37.80
2022-08-04T16:10:49.272Z,37.60
2022-08-04T16:13:19.910Z,37.60
2022-08-04T16:15:52.384Z,37.40
2022-08-04T16:18:47.647Z,37.40
2022-08-04T16:21:21.881Z,37.40
2022-08-04T16:24:09.981Z,36.70
2022-08-04T16:26:56.395Z,37.40
2022-08-04T16:29:34.037Z,37.40
2022-08-04T16:32:17.598Z,37.50
2022-08-04T16:34:55.419Z,38.00
2022-08-04T16:37:26.031Z,38.10
2022-08-04T16:40:34.140Z,38.30
2022-08-04T16:43:05.253Z,38.40
2022-08-04T16:45:47.190Z,38.60
2022-08-04T16:48:18.071Z,38.70
2022-08-04T16:50:56.084Z,38.80
2022-08-04T16:53:52.602Z,39.10
2022-08-04T16:56:18.666Z,39.10
2022-08-04T16:58:53.773Z,39.20
2022-08-04T17:01:32.509Z,39.20
2022-08-04T17:06:37.465Z,39.40
2022-08-04T17:09:08.123Z,39.50
2022-08-04T17:11:36.108Z,39.70
2022-08-04T17:14:06.085Z,39.70
2022-08-04T17:16:36.445Z,39.70
2022-08-04T17:19:24.280Z,39.60
2022-08-04T17:22:02.214Z,39.20
2022-08-04T17:24:31.999Z,39.00
2022-08-04T17:27:00.035Z,39.00
2022-08-04T17:32:19.687Z,38.90
2022-08-04T17:37:40.252Z,39.20
2022-08-04T17:40:12.113Z,39.60
2022-08-04T17:47:59.830Z,40.80
2022-08-04T17:53:13.214Z,41.70
2022-08-04T17:55:43.408Z,42.40
2022-08-04T17:58:21.586Z,42.60
2022-08-04T18:01:22.700Z,43.00
2022-08-04T18:03:53.505Z,43.00
2022-08-04T18:06:25.575Z,42.90
2022-08-04T18:08:59.431Z,42.80
2022-08-04T18:11:53.417Z,42.80
2022-08-04T18:14:25.883Z,42.60
2022-08-04T18:16:57.136Z,41.60
2022-08-04T18:19:25.118Z,41.50
2022-08-04T18:22:00.406Z,40.90
2022-08-04T18:27:19.437Z,39.00
2022-08-04T18:30:14.653Z,38.70
2022-08-04T18:32:36.287Z,38.10
2022-08-04T18:35:05.644Z,37.60
2022-08-04T18:38:05.460Z,37.60
2022-08-04T18:40:33.265Z,37.20
2022-08-04T18:43:14.339Z,36.90
2022-08-04T18:45:42.669Z,36.40
2022-08-04T18:48:19.290Z,36.30
2022-08-04T18:51:10.953Z,36.10
2022-08-04T18:53:36.457Z,35.90
2022-08-04T18:56:15.245Z,35.60
2022-08-04T18:58:53.867Z,35.50
2022-08-04T19:01:21.986Z,35.40
2022-08-04T19:03:58.338Z,35.10
2022-08-04T19:06:27.537Z,35.10
2022-08-04T19:08:56.875Z,35.00
2022-08-04T19:11:38.363Z,34.90
2022-08-04T19:14:14.276Z,34.80
2022-08-04T19:16:45.941Z,34.60
2022-08-04T19:19:15.173Z,34.60
2022-08-04T19:22:00.318Z,34.50
2022-08-04T19:24:34.341Z,34.40
2022-08-04T19:27:07.527Z,34.40
2022-08-04T19:29:41.392Z,34.20
2022-08-04T19:32:14.700Z,34.10
2022-08-04T19:34:46.097Z,33.90
2022-08-04T19:37:57.271Z,33.90
2022-08-04T19:40:34.066Z,33.80
2022-08-04T19:43:14.380Z,33.70
2022-08-04T19:45:45.264Z,33.70
2022-08-04T19:48:21.579Z,33.60
2022-08-04T19:50:50.511Z,32.50
2022-08-04T19:53:20.117Z,33.50
2022-08-04T19:56:06.034Z,33.40
2022-08-04T19:58:33.888Z,33.30
2022-08-04T20:01:02.150Z,33.20
2022-08-04T20:04:09.836Z,33.20
2022-08-04T20:06:18.024Z,33.10
2022-08-04T20:08:47.942Z,33.00
2022-08-04T20:11:20.487Z,33.00
2022-08-04T20:13:54.800Z,32.90
2022-08-04T20:16:30.003Z,32.80
2022-08-04T20:19:03.311Z,32.70
2022-08-04T20:21:54.067Z,32.70
2022-08-04T20:24:38.988Z,32.50
2022-08-04T20:27:21.579Z,32.60
2022-08-04T20:29:51.117Z,32.50
2022-08-04T20:32:22.246Z,32.40
2022-08-04T20:34:51.568Z,32.40
2022-08-04T20:37:20.677Z,32.30
2022-08-04T20:39:55.035Z,32.30
2022-08-04T20:42:27.545Z,32.20
2022-08-04T20:45:01.607Z,32.10
2022-08-04T20:47:35.116Z,32.10
2022-08-04T20:50:04.378Z,32.00
2022-08-04T20:52:33.211Z,32.00
2022-08-04T20:55:02.260Z,31.90
2022-08-04T20:57:48.170Z,31.80
2022-08-04T21:00:30.034Z,31.80
2022-08-04T21:02:58.586Z,31.70
2022-08-04T21:05:26.875Z,31.70
2022-08-04T21:07:56.484Z,31.60
2022-08-04T21:10:24.743Z,31.50
2022-08-04T21:12:55.381Z,31.40
2022-08-04T21:15:25.705Z,31.30
2022-08-04T21:18:12.084Z,31.30
2022-08-04T21:20:42.840Z,31.10
2022-08-04T21:23:11.308Z,31.10
2022-08-04T21:25:43.422Z,31.10
2022-08-04T21:28:20.088Z,31.00
2022-08-04T21:30:54.289Z,31.00
2022-08-04T21:33:23.194Z,30.90
2022-08-04T21:35:54.273Z,30.90
2022-08-04T21:38:25.368Z,30.80
2022-08-04T21:40:57.605Z,30.80
2022-08-04T21:43:29.804Z,30.70
2022-08-04T21:46:04.912Z,30.70
2022-08-04T21:48:33.665Z,30.70
2022-08-04T21:51:57.141Z,30.60
2022-08-04T21:54:02.721Z,30.60
2022-08-04T21:56:30.649Z,30.60
2022-08-04T21:59:04.457Z,30.60
2022-08-04T22:01:50.625Z,30.60
2022-08-04T22:04:22.427Z,30.50
2022-08-04T22:06:52.031Z,30.50
2022-08-04T22:09:21.796Z,30.50
2022-08-04T22:11:51.555Z,30.40
2022-08-04T22:14:29.140Z,30.40
2022-08-04T22:17:01.441Z,30.40
2022-08-04T22:19:49.967Z,30.40
2022-08-04T22:22:25.079Z,30.30
2022-08-04T22:24:55.185Z,30.20
2022-08-04T22:27:43.954Z,30.20
2022-08-04T22:30:18.032Z,30.20
2022-08-04T22:32:46.597Z,30.10
2022-08-04T22:35:35.666Z,30.00
2022-08-04T22:38:07.176Z,30.00
2022-08-04T22:40:50.777Z,29.90
2022-08-04T22:43:33.569Z,29.80
2022-08-04T22:46:06.500Z,29.80
2022-08-04T22:48:35.977Z,29.80
2022-08-04T22:51:04.976Z,29.80
2022-08-04T22:53:34.069Z,29.80
2022-08-04T22:56:10.117Z,30.90
2022-08-04T22:58:40.264Z,29.70
2022-08-04T23:01:10.727Z,29.70
2022-08-04T23:03:39.343Z,29.60
2022-08-04T23:06:10.805Z,29.60
2022-08-04T23:08:43.054Z,29.60
2022-08-04T23:11:14.986Z,29.60
2022-08-04T23:13:42.957Z,29.50
2022-08-04T23:16:12.328Z,29.50
2022-08-04T23:18:42.024Z,29.50
2022-08-04T23:21:11.309Z,29.50
2022-08-04T23:23:45.548Z,29.40
2022-08-04T23:26:28.282Z,29.40
2022-08-04T23:28:56.561Z,29.40
2022-08-04T23:31:28.219Z,29.30
2022-08-04T23:34:09.316Z,29.30
2022-08-04T23:39:08.700Z,29.30
2022-08-04T23:41:50.960Z,29.30
2022-08-04T23:44:24.926Z,29.30
2022-08-04T23:47:00.209Z,29.30
2022-08-04T23:49:44.108Z,29.20
2022-08-04T23:52:23.160Z,29.20
2022-08-04T23:54:58.284Z,29.20
2022-08-04T23:57:30.990Z,29.20
